sensor_id;sensor_type;location;lat;lon;timestamp;P1;durP1;ratioP1;P2;durP2;ratioP2
46643;SDS011;32371;51.032;5.816;2023-02-28T00:00:47;10.73;;;2.58;;
46643;SDS011;32371;51.032;5.816;2023-02-28T00:03:12;4.25;;;2.58;;
46643;SDS011;32371;51.032;5.816;2023-02-28T00:05:38;2.80;;;2.47;;
46643;SDS011;32371;51.032;5.816;2023-02-28T00:08:03;3.25;;;2.42;;
46643;SDS011;32371;51.032;5.816;2023-02-28T00:10:29;6.07;;;2.83;;
46643;SDS011;32371;51.032;5.816;2023-02-28T00:12:59;5.30;;;2.70;;
46643;SDS011;32371;51.032;5.816;2023-02-28T00:15:25;2.60;;;2.22;;
46643;SDS011;32371;51.032;5.816;2023-02-28T00:17:51;5.10;;;2.72;;
46643;SDS011;32371;51.032;5.816;2023-02-28T00:20:17;5.13;;;2.45;;
46643;SDS011;32371;51.032;5.816;2023-02-28T00:22:44;5.43;;;2.80;;
46643;SDS011;32371;51.032;5.816;2023-02-28T00:25:11;6.43;;;3.38;;
46643;SDS011;32371;51.032;5.816;2023-02-28T00:27:38;5.60;;;3.25;;
46643;SDS011;32371;51.032;5.816;2023-02-28T00:30:04;4.22;;;2.78;;
46643;SDS011;32371;51.032;5.816;2023-02-28T00:32:31;5.07;;;2.85;;
46643;SDS011;32371;51.032;5.816;2023-02-28T00:34:56;8.27;;;3.88;;
46643;SDS011;32371;51.032;5.816;2023-02-28T00:37:22;6.10;;;3.38;;
46643;SDS011;32371;51.032;5.816;2023-02-28T00:39:47;3.22;;;2.50;;
46643;SDS011;32371;51.032;5.816;2023-02-28T00:42:14;3.35;;;2.40;;
46643;SDS011;32371;51.032;5.816;2023-02-28T00:44:39;5.75;;;3.08;;
46643;SDS011;32371;51.032;5.816;2023-02-28T00:47:04;3.92;;;2.83;;
46643;SDS011;32371;51.032;5.816;2023-02-28T00:49:30;2.95;;;2.30;;
46643;SDS011;32371;51.032;5.816;2023-02-28T00:51:55;5.07;;;2.97;;
46643;SDS011;32371;51.032;5.816;2023-02-28T00:54:21;3.65;;;2.55;;
46643;SDS011;32371;51.032;5.816;2023-02-28T00:56:47;3.72;;;2.72;;
46643;SDS011;32371;51.032;5.816;2023-02-28T00:59:14;4.80;;;3.05;;
46643;SDS011;32371;51.032;5.816;2023-02-28T01:01:40;5.68;;;2.47;;
46643;SDS011;32371;51.032;5.816;2023-02-28T01:04:06;3.63;;;3.00;;
46643;SDS011;32371;51.032;5.816;2023-02-28T01:06:31;4.95;;;2.40;;
46643;SDS011;32371;51.032;5.816;2023-02-28T01:08:57;6.38;;;2.67;;
46643;SDS011;32371;51.032;5.816;2023-02-28T01:11:23;4.57;;;2.42;;
46643;SDS011;32371;51.032;5.816;2023-02-28T01:13:49;5.57;;;2.40;;
46643;SDS011;32371;51.032;5.816;2023-02-28T01:16:14;2.85;;;2.53;;
46643;SDS011;32371;51.032;5.816;2023-02-28T01:18:40;5.85;;;3.08;;
46643;SDS011;32371;51.032;5.816;2023-02-28T01:21:06;7.45;;;2.63;;
46643;SDS011;32371;51.032;5.816;2023-02-28T01:23:33;4.45;;;2.33;;
46643;SDS011;32371;51.032;5.816;2023-02-28T01:26:08;4.43;;;2.83;;
46643;SDS011;32371;51.032;5.816;2023-02-28T01:28:37;5.57;;;2.60;;
46643;SDS011;32371;51.032;5.816;2023-02-28T01:31:03;5.97;;;2.50;;
46643;SDS011;32371;51.032;5.816;2023-02-28T01:33:29;9.25;;;3.05;;
46643;SDS011;32371;51.032;5.816;2023-02-28T01:36:01;5.72;;;2.58;;
46643;SDS011;32371;51.032;5.816;2023-02-28T01:38:28;7.70;;;2.83;;
46643;SDS011;32371;51.032;5.816;2023-02-28T01:40:53;7.15;;;3.15;;
46643;SDS011;32371;51.032;5.816;2023-02-28T01:43:23;8.05;;;2.75;;
46643;SDS011;32371;51.032;5.816;2023-02-28T01:45:54;6.68;;;2.97;;
46643;SDS011;32371;51.032;5.816;2023-02-28T01:48:21;6.15;;;3.17;;
46643;SDS011;32371;51.032;5.816;2023-02-28T01:50:53;6.40;;;2.80;;
46643;SDS011;32371;51.032;5.816;2023-02-28T01:53:20;3.90;;;2.60;;
46643;SDS011;32371;51.032;5.816;2023-02-28T01:55:49;8.10;;;2.97;;
46643;SDS011;32371;51.032;5.816;2023-02-28T01:58:15;3.88;;;2.90;;
46643;SDS011;32371;51.032;5.816;2023-02-28T02:00:41;6.15;;;3.45;;
46643;SDS011;32371;51.032;5.816;2023-02-28T02:03:12;6.53;;;2.72;;
46643;SDS011;32371;51.032;5.816;2023-02-28T02:05:39;7.68;;;2.95;;
46643;SDS011;32371;51.032;5.816;2023-02-28T02:08:09;8.15;;;3.83;;
46643;SDS011;32371;51.032;5.816;2023-02-28T02:10:41;4.13;;;3.05;;
46643;SDS011;32371;51.032;5.816;2023-02-28T02:15:45;3.90;;;2.78;;
46643;SDS011;32371;51.032;5.816;2023-02-28T02:26:34;6.97;;;2.83;;
46643;SDS011;32371;51.032;5.816;2023-02-28T02:34:39;3.97;;;2.35;;
46643;SDS011;32371;51.032;5.816;2023-02-28T02:37:15;4.57;;;2.83;;
46643;SDS011;32371;51.032;5.816;2023-02-28T02:39:51;7.28;;;2.92;;
46643;SDS011;32371;51.032;5.816;2023-02-28T02:42:38;6.78;;;2.70;;
46643;SDS011;32371;51.032;5.816;2023-02-28T02:45:47;8.23;;;3.13;;
46643;SDS011;32371;51.032;5.816;2023-02-28T02:48:01;5.88;;;3.60;;
46643;SDS011;32371;51.032;5.816;2023-02-28T02:50:36;5.63;;;3.20;;
46643;SDS011;32371;51.032;5.816;2023-02-28T02:53:04;3.85;;;2.95;;
46643;SDS011;32371;51.032;5.816;2023-02-28T02:55:31;7.22;;;3.20;;
46643;SDS011;32371;51.032;5.816;2023-02-28T02:58:01;6.40;;;3.45;;
46643;SDS011;32371;51.032;5.816;2023-02-28T03:00:33;5.85;;;3.45;;
46643;SDS011;32371;51.032;5.816;2023-02-28T03:03:02;5.30;;;2.70;;
46643;SDS011;32371;51.032;5.816;2023-02-28T03:05:30;6.55;;;2.90;;
46643;SDS011;32371;51.032;5.816;2023-02-28T03:07:59;7.43;;;3.72;;
46643;SDS011;32371;51.032;5.816;2023-02-28T03:13:00;6.07;;;3.72;;
46643;SDS011;32371;51.032;5.816;2023-02-28T03:15:44;4.82;;;3.40;;
46643;SDS011;32371;51.032;5.816;2023-02-28T03:18:24;7.18;;;3.05;;
46643;SDS011;32371;51.032;5.816;2023-02-28T03:21:14;7.30;;;3.25;;
46643;SDS011;32371;51.032;5.816;2023-02-28T03:23:48;9.18;;;3.15;;
46643;SDS011;32371;51.032;5.816;2023-02-28T03:26:21;7.78;;;3.20;;
46643;SDS011;32371;51.032;5.816;2023-02-28T03:36:35;6.68;;;3.00;;
46643;SDS011;32371;51.032;5.816;2023-02-28T03:39:09;10.20;;;3.45;;
46643;SDS011;32371;51.032;5.816;2023-02-28T03:41:49;5.80;;;3.25;;
46643;SDS011;32371;51.032;5.816;2023-02-28T03:44:39;8.75;;;3.85;;
46643;SDS011;32371;51.032;5.816;2023-02-28T03:47:08;5.03;;;3.40;;
46643;SDS011;32371;51.032;5.816;2023-02-28T03:49:38;3.75;;;2.90;;
46643;SDS011;32371;51.032;5.816;2023-02-28T03:52:08;8.88;;;3.17;;
46643;SDS011;32371;51.032;5.816;2023-02-28T03:54:36;7.75;;;3.08;;
46643;SDS011;32371;51.032;5.816;2023-02-28T03:59:43;5.90;;;3.28;;
46643;SDS011;32371;51.032;5.816;2023-02-28T04:02:10;5.72;;;3.53;;
46643;SDS011;32371;51.032;5.816;2023-02-28T04:04:35;8.00;;;3.30;;
46643;SDS011;32371;51.032;5.816;2023-02-28T04:07:02;7.22;;;2.95;;
46643;SDS011;32371;51.032;5.816;2023-02-28T04:09:30;4.30;;;3.33;;
46643;SDS011;32371;51.032;5.816;2023-02-28T04:11:55;4.75;;;3.38;;
46643;SDS011;32371;51.032;5.816;2023-02-28T04:14:21;6.85;;;3.15;;
46643;SDS011;32371;51.032;5.816;2023-02-28T04:16:47;8.30;;;3.45;;
46643;SDS011;32371;51.032;5.816;2023-02-28T04:19:12;9.90;;;3.50;;
46643;SDS011;32371;51.032;5.816;2023-02-28T04:21:43;4.78;;;2.95;;
46643;SDS011;32371;51.032;5.816;2023-02-28T04:24:10;4.63;;;2.85;;
46643;SDS011;32371;51.032;5.816;2023-02-28T04:26:44;4.47;;;3.00;;
46643;SDS011;32371;51.032;5.816;2023-02-28T04:29:11;5.00;;;3.08;;
46643;SDS011;32371;51.032;5.816;2023-02-28T04:31:38;5.65;;;2.53;;
46643;SDS011;32371;51.032;5.816;2023-02-28T04:34:03;4.93;;;2.80;;
46643;SDS011;32371;51.032;5.816;2023-02-28T04:36:29;6.22;;;3.15;;
46643;SDS011;32371;51.032;5.816;2023-02-28T04:38:54;5.68;;;3.20;;
46643;SDS011;32371;51.032;5.816;2023-02-28T04:41:20;3.55;;;3.00;;
46643;SDS011;32371;51.032;5.816;2023-02-28T04:43:46;6.97;;;3.55;;
46643;SDS011;32371;51.032;5.816;2023-02-28T04:46:11;3.88;;;3.10;;
46643;SDS011;32371;51.032;5.816;2023-02-28T04:48:38;6.65;;;3.13;;
46643;SDS011;32371;51.032;5.816;2023-02-28T04:51:05;9.75;;;3.80;;
46643;SDS011;32371;51.032;5.816;2023-02-28T04:53:38;4.25;;;2.95;;
46643;SDS011;32371;51.032;5.816;2023-02-28T04:56:04;6.07;;;3.22;;
46643;SDS011;32371;51.032;5.816;2023-02-28T04:58:31;6.85;;;3.03;;
46643;SDS011;32371;51.032;5.816;2023-02-28T05:01:03;6.03;;;3.42;;
46643;SDS011;32371;51.032;5.816;2023-02-28T05:03:38;5.60;;;3.00;;
46643;SDS011;32371;51.032;5.816;2023-02-28T05:06:05;8.35;;;3.28;;
46643;SDS011;32371;51.032;5.816;2023-02-28T05:08:32;9.43;;;3.53;;
46643;SDS011;32371;51.032;5.816;2023-02-28T05:10:57;5.53;;;2.78;;
46643;SDS011;32371;51.032;5.816;2023-02-28T05:13:23;7.15;;;2.90;;
46643;SDS011;32371;51.032;5.816;2023-02-28T05:15:48;7.50;;;3.15;;
46643;SDS011;32371;51.032;5.816;2023-02-28T05:18:14;7.57;;;3.92;;
46643;SDS011;32371;51.032;5.816;2023-02-28T05:20:39;6.18;;;3.42;;
46643;SDS011;32371;51.032;5.816;2023-02-28T05:23:05;6.00;;;3.08;;
46643;SDS011;32371;51.032;5.816;2023-02-28T05:25:30;8.63;;;3.10;;
46643;SDS011;32371;51.032;5.816;2023-02-28T05:27:56;4.95;;;2.95;;
46643;SDS011;32371;51.032;5.816;2023-02-28T05:30:21;5.78;;;3.35;;
46643;SDS011;32371;51.032;5.816;2023-02-28T05:32:49;5.97;;;2.65;;
46643;SDS011;32371;51.032;5.816;2023-02-28T05:35:17;3.92;;;2.35;;
46643;SDS011;32371;51.032;5.816;2023-02-28T05:37:43;7.53;;;3.17;;
46643;SDS011;32371;51.032;5.816;2023-02-28T05:40:08;6.40;;;2.97;;
46643;SDS011;32371;51.032;5.816;2023-02-28T05:42:37;6.57;;;3.35;;
46643;SDS011;32371;51.032;5.816;2023-02-28T05:45:03;4.80;;;2.75;;
46643;SDS011;32371;51.032;5.816;2023-02-28T05:47:29;4.47;;;2.65;;
46643;SDS011;32371;51.032;5.816;2023-02-28T05:49:54;8.68;;;2.80;;
46643;SDS011;32371;51.032;5.816;2023-02-28T05:52:20;9.82;;;3.50;;
46643;SDS011;32371;51.032;5.816;2023-02-28T05:54:46;12.10;;;3.10;;
46643;SDS011;32371;51.032;5.816;2023-02-28T05:57:13;7.50;;;3.53;;
46643;SDS011;32371;51.032;5.816;2023-02-28T05:59:39;7.72;;;3.03;;
46643;SDS011;32371;51.032;5.816;2023-02-28T06:02:06;9.73;;;2.90;;
46643;SDS011;32371;51.032;5.816;2023-02-28T06:04:34;7.18;;;2.97;;
46643;SDS011;32371;51.032;5.816;2023-02-28T06:06:59;6.40;;;2.97;;
46643;SDS011;32371;51.032;5.816;2023-02-28T06:09:25;6.45;;;3.15;;
46643;SDS011;32371;51.032;5.816;2023-02-28T06:11:50;6.72;;;3.42;;
46643;SDS011;32371;51.032;5.816;2023-02-28T06:14:16;5.57;;;2.97;;
46643;SDS011;32371;51.032;5.816;2023-02-28T06:16:43;3.63;;;2.42;;
46643;SDS011;32371;51.032;5.816;2023-02-28T06:19:09;5.30;;;2.83;;
46643;SDS011;32371;51.032;5.816;2023-02-28T06:21:35;3.42;;;2.70;;
46643;SDS011;32371;51.032;5.816;2023-02-28T06:24:00;8.85;;;2.88;;
46643;SDS011;32371;51.032;5.816;2023-02-28T06:26:26;5.70;;;3.00;;
46643;SDS011;32371;51.032;5.816;2023-02-28T06:28:52;7.55;;;2.72;;
46643;SDS011;32371;51.032;5.816;2023-02-28T06:31:17;7.10;;;3.00;;
46643;SDS011;32371;51.032;5.816;2023-02-28T06:33:44;6.85;;;2.85;;
46643;SDS011;32371;51.032;5.816;2023-02-28T06:36:10;7.45;;;2.65;;
46643;SDS011;32371;51.032;5.816;2023-02-28T06:38:36;6.70;;;2.72;;
46643;SDS011;32371;51.032;5.816;2023-02-28T06:41:02;4.20;;;2.95;;
46643;SDS011;32371;51.032;5.816;2023-02-28T06:43:29;4.65;;;2.60;;
46643;SDS011;32371;51.032;5.816;2023-02-28T06:45:56;4.82;;;2.67;;
46643;SDS011;32371;51.032;5.816;2023-02-28T06:48:23;4.53;;;2.30;;
46643;SDS011;32371;51.032;5.816;2023-02-28T06:50:48;7.78;;;3.45;;
46643;SDS011;32371;51.032;5.816;2023-02-28T06:53:14;7.75;;;3.22;;
46643;SDS011;32371;51.032;5.816;2023-02-28T06:55:39;6.47;;;3.00;;
46643;SDS011;32371;51.032;5.816;2023-02-28T06:58:05;5.07;;;2.83;;
46643;SDS011;32371;51.032;5.816;2023-02-28T07:00:40;7.68;;;3.05;;
46643;SDS011;32371;51.032;5.816;2023-02-28T07:03:08;3.80;;;2.88;;
46643;SDS011;32371;51.032;5.816;2023-02-28T07:05:34;7.85;;;2.65;;
46643;SDS011;32371;51.032;5.816;2023-02-28T07:08:01;7.45;;;2.85;;
46643;SDS011;32371;51.032;5.816;2023-02-28T07:10:26;9.02;;;2.83;;
46643;SDS011;32371;51.032;5.816;2023-02-28T07:12:52;5.88;;;2.47;;
46643;SDS011;32371;51.032;5.816;2023-02-28T07:15:17;7.85;;;3.35;;
46643;SDS011;32371;51.032;5.816;2023-02-28T07:17:42;5.75;;;2.17;;
46643;SDS011;32371;51.032;5.816;2023-02-28T07:20:08;4.32;;;2.85;;
46643;SDS011;32371;51.032;5.816;2023-02-28T07:22:34;3.67;;;2.20;;
46643;SDS011;32371;51.032;5.816;2023-02-28T07:24:59;7.57;;;3.05;;
46643;SDS011;32371;51.032;5.816;2023-02-28T07:27:25;5.97;;;2.72;;
46643;SDS011;32371;51.032;5.816;2023-02-28T07:29:50;9.63;;;2.58;;
46643;SDS011;32371;51.032;5.816;2023-02-28T07:32:16;5.93;;;2.58;;
46643;SDS011;32371;51.032;5.816;2023-02-28T07:34:42;10.02;;;2.85;;
46643;SDS011;32371;51.032;5.816;2023-02-28T07:37:07;7.00;;;2.85;;
46643;SDS011;32371;51.032;5.816;2023-02-28T07:39:33;8.55;;;2.95;;
46643;SDS011;32371;51.032;5.816;2023-02-28T07:41:58;6.30;;;3.60;;
46643;SDS011;32371;51.032;5.816;2023-02-28T07:44:25;5.57;;;2.70;;
46643;SDS011;32371;51.032;5.816;2023-02-28T07:46:50;7.82;;;3.22;;
46643;SDS011;32371;51.032;5.816;2023-02-28T07:49:16;4.13;;;2.50;;
46643;SDS011;32371;51.032;5.816;2023-02-28T07:51:41;9.75;;;3.25;;
46643;SDS011;32371;51.032;5.816;2023-02-28T07:54:07;4.38;;;2.10;;
46643;SDS011;32371;51.032;5.816;2023-02-28T07:56:32;5.28;;;2.80;;
46643;SDS011;32371;51.032;5.816;2023-02-28T07:58:58;7.53;;;3.17;;
46643;SDS011;32371;51.032;5.816;2023-02-28T08:01:23;7.60;;;2.13;;
46643;SDS011;32371;51.032;5.816;2023-02-28T08:03:49;7.65;;;2.65;;
46643;SDS011;32371;51.032;5.816;2023-02-28T08:06:16;4.28;;;2.40;;
46643;SDS011;32371;51.032;5.816;2023-02-28T08:08:43;6.97;;;2.60;;
46643;SDS011;32371;51.032;5.816;2023-02-28T08:11:09;6.72;;;2.38;;
46643;SDS011;32371;51.032;5.816;2023-02-28T08:13:34;10.82;;;2.38;;
46643;SDS011;32371;51.032;5.816;2023-02-28T08:16:01;6.47;;;2.47;;
46643;SDS011;32371;51.032;5.816;2023-02-28T08:18:26;3.15;;;2.08;;
46643;SDS011;32371;51.032;5.816;2023-02-28T08:20:52;7.75;;;2.38;;
46643;SDS011;32371;51.032;5.816;2023-02-28T08:23:18;4.93;;;2.28;;
46643;SDS011;32371;51.032;5.816;2023-02-28T08:25:43;4.28;;;2.50;;
46643;SDS011;32371;51.032;5.816;2023-02-28T08:28:09;4.57;;;2.53;;
46643;SDS011;32371;51.032;5.816;2023-02-28T08:30:34;7.20;;;2.08;;
46643;SDS011;32371;51.032;5.816;2023-02-28T08:33:00;4.03;;;2.35;;
46643;SDS011;32371;51.032;5.816;2023-02-28T08:35:26;6.53;;;2.80;;
46643;SDS011;32371;51.032;5.816;2023-02-28T08:37:52;3.58;;;2.50;;
46643;SDS011;32371;51.032;5.816;2023-02-28T08:40:17;3.50;;;1.77;;
46643;SDS011;32371;51.032;5.816;2023-02-28T08:42:45;2.25;;;1.77;;
46643;SDS011;32371;51.032;5.816;2023-02-28T08:45:11;2.72;;;1.55;;
46643;SDS011;32371;51.032;5.816;2023-02-28T08:47:37;7.07;;;2.10;;
46643;SDS011;32371;51.032;5.816;2023-02-28T08:50:02;4.57;;;2.22;;
46643;SDS011;32371;51.032;5.816;2023-02-28T08:52:28;5.85;;;1.60;;
46643;SDS011;32371;51.032;5.816;2023-02-28T08:54:54;3.17;;;1.77;;
46643;SDS011;32371;51.032;5.816;2023-02-28T08:57:19;6.38;;;2.40;;
46643;SDS011;32371;51.032;5.816;2023-02-28T08:59:45;3.33;;;2.25;;
46643;SDS011;32371;51.032;5.816;2023-02-28T09:02:12;2.53;;;1.85;;
46643;SDS011;32371;51.032;5.816;2023-02-28T09:04:38;2.70;;;1.95;;
46643;SDS011;32371;51.032;5.816;2023-02-28T09:07:03;6.25;;;2.20;;
46643;SDS011;32371;51.032;5.816;2023-02-28T09:09:29;6.88;;;2.13;;
46643;SDS011;32371;51.032;5.816;2023-02-28T09:11:55;2.72;;;1.92;;
46643;SDS011;32371;51.032;5.816;2023-02-28T09:14:21;3.47;;;1.58;;
46643;SDS011;32371;51.032;5.816;2023-02-28T09:16:46;3.30;;;1.50;;
46643;SDS011;32371;51.032;5.816;2023-02-28T09:19:12;1.90;;;1.45;;
46643;SDS011;32371;51.032;5.816;2023-02-28T09:21:37;3.58;;;1.60;;
46643;SDS011;32371;51.032;5.816;2023-02-28T09:24:03;2.30;;;1.20;;
46643;SDS011;32371;51.032;5.816;2023-02-28T09:26:28;2.05;;;1.40;;
46643;SDS011;32371;51.032;5.816;2023-02-28T09:28:54;1.05;;;1.00;;
46643;SDS011;32371;51.032;5.816;2023-02-28T09:31:21;1.55;;;0.93;;
46643;SDS011;32371;51.032;5.816;2023-02-28T09:33:48;1.60;;;1.30;;
46643;SDS011;32371;51.032;5.816;2023-02-28T09:36:14;1.75;;;1.27;;
46643;SDS011;32371;51.032;5.816;2023-02-28T09:38:40;0.93;;;0.93;;
46643;SDS011;32371;51.032;5.816;2023-02-28T09:41:16;2.92;;;1.20;;
46643;SDS011;32371;51.032;5.816;2023-02-28T09:43:44;4.32;;;1.60;;
46643;SDS011;32371;51.032;5.816;2023-02-28T09:49:05;2.65;;;0.82;;
46643;SDS011;32371;51.032;5.816;2023-02-28T09:51:50;2.70;;;1.38;;
46643;SDS011;32371;51.032;5.816;2023-02-28T09:54:29;1.48;;;1.13;;
46643;SDS011;32371;51.032;5.816;2023-02-28T09:57:14;2.15;;;1.45;;
46643;SDS011;32371;51.032;5.816;2023-02-28T10:00:06;1.58;;;1.00;;
46643;SDS011;32371;51.032;5.816;2023-02-28T10:02:46;1.45;;;1.08;;
46643;SDS011;32371;51.032;5.816;2023-02-28T10:05:14;1.10;;;1.00;;
46643;SDS011;32371;51.032;5.816;2023-02-28T10:15:51;1.00;;;0.93;;
46643;SDS011;32371;51.032;5.816;2023-02-28T10:18:22;0.88;;;0.88;;
46643;SDS011;32371;51.032;5.816;2023-02-28T10:20:50;2.05;;;0.80;;
46643;SDS011;32371;51.032;5.816;2023-02-28T10:23:21;4.07;;;1.00;;
46643;SDS011;32371;51.032;5.816;2023-02-28T10:25:53;1.88;;;1.30;;
46643;SDS011;32371;51.032;5.816;2023-02-28T10:28:20;6.82;;;1.00;;
46643;SDS011;32371;51.032;5.816;2023-02-28T10:30:50;2.88;;;0.90;;
46643;SDS011;32371;51.032;5.816;2023-02-28T10:36:03;1.08;;;0.70;;
46643;SDS011;32371;51.032;5.816;2023-02-28T10:38:35;1.55;;;0.82;;
46643;SDS011;32371;51.032;5.816;2023-02-28T10:41:03;1.48;;;0.63;;
46643;SDS011;32371;51.032;5.816;2023-02-28T10:43:31;1.50;;;0.60;;
46643;SDS011;32371;51.032;5.816;2023-02-28T10:46:02;0.75;;;0.75;;
46643;SDS011;32371;51.032;5.816;2023-02-28T10:50:57;3.13;;;0.90;;
46643;SDS011;32371;51.032;5.816;2023-02-28T10:58:29;2.15;;;0.70;;
46643;SDS011;32371;51.032;5.816;2023-02-28T11:00:55;0.82;;;0.70;;
46643;SDS011;32371;51.032;5.816;2023-02-28T11:03:25;1.08;;;0.90;;
46643;SDS011;32371;51.032;5.816;2023-02-28T11:05:55;1.33;;;0.93;;
46643;SDS011;32371;51.032;5.816;2023-02-28T11:08:20;2.83;;;1.10;;
46643;SDS011;32371;51.032;5.816;2023-02-28T11:10:56;0.90;;;0.90;;
46643;SDS011;32371;51.032;5.816;2023-02-28T11:13:28;3.63;;;0.90;;
46643;SDS011;32371;51.032;5.816;2023-02-28T11:16:00;4.00;;;0.98;;
46643;SDS011;32371;51.032;5.816;2023-02-28T11:18:36;3.17;;;1.00;;
46643;SDS011;32371;51.032;5.816;2023-02-28T11:21:03;0.90;;;0.90;;
46643;SDS011;32371;51.032;5.816;2023-02-28T11:23:29;4.22;;;0.80;;
46643;SDS011;32371;51.032;5.816;2023-02-28T11:25:59;0.85;;;0.80;;
46643;SDS011;32371;51.032;5.816;2023-02-28T11:28:28;2.15;;;0.98;;
46643;SDS011;32371;51.032;5.816;2023-02-28T11:33:53;4.35;;;0.98;;
46643;SDS011;32371;51.032;5.816;2023-02-28T11:36:28;2.97;;;0.98;;
46643;SDS011;32371;51.032;5.816;2023-02-28T11:39:15;1.10;;;1.00;;
46643;SDS011;32371;51.032;5.816;2023-02-28T11:50:19;1.17;;;1.02;;
46643;SDS011;32371;51.032;5.816;2023-02-28T11:52:54;0.95;;;0.85;;
46643;SDS011;32371;51.032;5.816;2023-02-28T11:58:00;1.35;;;1.00;;
46643;SDS011;32371;51.032;5.816;2023-02-28T12:05:34;1.00;;;0.80;;
46643;SDS011;32371;51.032;5.816;2023-02-28T12:11:02;1.60;;;1.02;;
46643;SDS011;32371;51.032;5.816;2023-02-28T12:13:35;2.30;;;1.00;;
46643;SDS011;32371;51.032;5.816;2023-02-28T12:27:18;2.00;;;1.23;;
46643;SDS011;32371;51.032;5.816;2023-02-28T12:29:47;1.77;;;1.42;;
46643;SDS011;32371;51.032;5.816;2023-02-28T12:32:20;2.13;;;1.10;;
46643;SDS011;32371;51.032;5.816;2023-02-28T12:34:53;1.13;;;1.00;;
46643;SDS011;32371;51.032;5.816;2023-02-28T12:37:23;1.63;;;1.10;;
46643;SDS011;32371;51.032;5.816;2023-02-28T12:39:54;2.47;;;1.38;;
46643;SDS011;32371;51.032;5.816;2023-02-28T12:42:32;2.03;;;1.20;;
46643;SDS011;32371;51.032;5.816;2023-02-28T12:45:02;1.00;;;0.90;;
46643;SDS011;32371;51.032;5.816;2023-02-28T12:47:32;1.77;;;1.05;;
46643;SDS011;32371;51.032;5.816;2023-02-28T12:50:08;2.65;;;1.20;;
46643;SDS011;32371;51.032;5.816;2023-02-28T12:57:49;1.98;;;1.40;;
46643;SDS011;32371;51.032;5.816;2023-02-28T13:00:22;4.68;;;1.10;;
46643;SDS011;32371;51.032;5.816;2023-02-28T13:13:56;2.33;;;1.60;;
46643;SDS011;32371;51.032;5.816;2023-02-28T13:16:26;2.13;;;1.30;;
46643;SDS011;32371;51.032;5.816;2023-02-28T13:18:51;2.95;;;1.48;;
46643;SDS011;32371;51.032;5.816;2023-02-28T13:21:28;4.13;;;1.45;;
46643;SDS011;32371;51.032;5.816;2023-02-28T13:32:29;1.88;;;1.70;;
46643;SDS011;32371;51.032;5.816;2023-02-28T13:34:32;1.77;;;1.38;;
46643;SDS011;32371;51.032;5.816;2023-02-28T13:47:29;1.38;;;1.27;;
46643;SDS011;32371;51.032;5.816;2023-02-28T13:50:19;2.15;;;1.95;;
46643;SDS011;32371;51.032;5.816;2023-02-28T13:52:57;2.17;;;0.90;;
46643;SDS011;32371;51.032;5.816;2023-02-28T14:06:47;3.60;;;1.08;;
46643;SDS011;32371;51.032;5.816;2023-02-28T14:11:44;3.63;;;1.17;;
46643;SDS011;32371;51.032;5.816;2023-02-28T14:14:56;1.83;;;1.15;;
46643;SDS011;32371;51.032;5.816;2023-02-28T14:16:59;4.85;;;1.70;;
46643;SDS011;32371;51.032;5.816;2023-02-28T14:19:26;1.27;;;1.05;;
46643;SDS011;32371;51.032;5.816;2023-02-28T14:32:59;1.52;;;1.20;;
46643;SDS011;32371;51.032;5.816;2023-02-28T14:41:16;1.45;;;1.00;;
46643;SDS011;32371;51.032;5.816;2023-02-28T14:43:49;1.52;;;1.17;;
46643;SDS011;32371;51.032;5.816;2023-02-28T14:46:22;1.65;;;1.40;;
46643;SDS011;32371;51.032;5.816;2023-02-28T14:48:51;2.72;;;1.60;;
46643;SDS011;32371;51.032;5.816;2023-02-28T14:51:21;3.88;;;1.40;;
46643;SDS011;32371;51.032;5.816;2023-02-28T14:53:49;4.45;;;1.20;;
46643;SDS011;32371;51.032;5.816;2023-02-28T14:56:21;2.70;;;1.30;;
46643;SDS011;32371;51.032;5.816;2023-02-28T14:58:52;1.38;;;1.25;;
46643;SDS011;32371;51.032;5.816;2023-02-28T15:01:20;2.92;;;1.35;;
46643;SDS011;32371;51.032;5.816;2023-02-28T15:03:47;1.38;;;1.27;;
46643;SDS011;32371;51.032;5.816;2023-02-28T15:06:17;2.63;;;1.35;;
46643;SDS011;32371;51.032;5.816;2023-02-28T15:08:43;5.13;;;1.30;;
46643;SDS011;32371;51.032;5.816;2023-02-28T15:11:18;2.35;;;1.40;;
46643;SDS011;32371;51.032;5.816;2023-02-28T15:13:51;2.40;;;1.50;;
46643;SDS011;32371;51.032;5.816;2023-02-28T15:16:20;4.68;;;1.42;;
46643;SDS011;32371;51.032;5.816;2023-02-28T15:18:51;2.00;;;1.38;;
46643;SDS011;32371;51.032;5.816;2023-02-28T15:21:20;3.83;;;1.40;;
46643;SDS011;32371;51.032;5.816;2023-02-28T15:26:39;1.98;;;1.50;;
46643;SDS011;32371;51.032;5.816;2023-02-28T15:29:07;3.38;;;1.85;;
46643;SDS011;32371;51.032;5.816;2023-02-28T15:31:39;3.47;;;1.60;;
46643;SDS011;32371;51.032;5.816;2023-02-28T15:34:06;1.88;;;1.33;;
46643;SDS011;32371;51.032;5.816;2023-02-28T15:36:44;1.98;;;1.35;;
46643;SDS011;32371;51.032;5.816;2023-02-28T15:39:20;2.60;;;1.55;;
46643;SDS011;32371;51.032;5.816;2023-02-28T15:41:47;1.70;;;1.52;;
46643;SDS011;32371;51.032;5.816;2023-02-28T15:44:13;1.90;;;1.50;;
46643;SDS011;32371;51.032;5.816;2023-02-28T15:47:00;3.22;;;1.60;;
46643;SDS011;32371;51.032;5.816;2023-02-28T15:49:26;3.50;;;1.58;;
46643;SDS011;32371;51.032;5.816;2023-02-28T15:51:53;2.13;;;1.10;;
46643;SDS011;32371;51.032;5.816;2023-02-28T15:54:22;3.42;;;1.45;;
46643;SDS011;32371;51.032;5.816;2023-02-28T15:56:51;4.80;;;1.42;;
46643;SDS011;32371;51.032;5.816;2023-02-28T15:59:21;2.10;;;1.38;;
46643;SDS011;32371;51.032;5.816;2023-02-28T16:02:01;1.67;;;1.05;;
46643;SDS011;32371;51.032;5.816;2023-02-28T16:04:36;2.90;;;1.60;;
46643;SDS011;32371;51.032;5.816;2023-02-28T16:07:03;2.15;;;1.42;;
46643;SDS011;32371;51.032;5.816;2023-02-28T16:09:30;4.13;;;1.30;;
46643;SDS011;32371;51.032;5.816;2023-02-28T16:11:56;2.53;;;1.60;;
46643;SDS011;32371;51.032;5.816;2023-02-28T16:14:26;3.42;;;1.50;;
46643;SDS011;32371;51.032;5.816;2023-02-28T16:17:05;2.08;;;0.85;;
46643;SDS011;32371;51.032;5.816;2023-02-28T16:19:34;3.20;;;1.35;;
46643;SDS011;32371;51.032;5.816;2023-02-28T16:21:59;4.45;;;1.30;;
46643;SDS011;32371;51.032;5.816;2023-02-28T16:24:25;3.13;;;1.40;;
46643;SDS011;32371;51.032;5.816;2023-02-28T16:26:51;5.63;;;1.80;;
46643;SDS011;32371;51.032;5.816;2023-02-28T16:29:29;4.05;;;1.30;;
46643;SDS011;32371;51.032;5.816;2023-02-28T16:31:57;2.80;;;1.70;;
46643;SDS011;32371;51.032;5.816;2023-02-28T16:34:23;2.72;;;1.13;;
46643;SDS011;32371;51.032;5.816;2023-02-28T16:36:48;2.33;;;1.42;;
46643;SDS011;32371;51.032;5.816;2023-02-28T16:39:14;3.95;;;1.60;;
46643;SDS011;32371;51.032;5.816;2023-02-28T16:41:44;5.95;;;1.70;;
46643;SDS011;32371;51.032;5.816;2023-02-28T16:44:14;3.67;;;1.33;;
46643;SDS011;32371;51.032;5.816;2023-02-28T16:46:49;3.13;;;1.63;;
46643;SDS011;32371;51.032;5.816;2023-02-28T16:49:14;9.48;;;1.20;;
46643;SDS011;32371;51.032;5.816;2023-02-28T16:51:40;5.20;;;2.05;;
46643;SDS011;32371;51.032;5.816;2023-02-28T16:54:05;2.08;;;1.48;;
46643;SDS011;32371;51.032;5.816;2023-02-28T16:56:31;3.35;;;1.80;;
46643;SDS011;32371;51.032;5.816;2023-02-28T16:58:59;2.50;;;1.45;;
46643;SDS011;32371;51.032;5.816;2023-02-28T17:01:25;3.90;;;1.80;;
46643;SDS011;32371;51.032;5.816;2023-02-28T17:03:52;4.28;;;1.80;;
46643;SDS011;32371;51.032;5.816;2023-02-28T17:06:22;1.73;;;1.50;;
46643;SDS011;32371;51.032;5.816;2023-02-28T17:08:49;6.18;;;2.08;;
46643;SDS011;32371;51.032;5.816;2023-02-28T17:11:16;2.85;;;1.75;;
46643;SDS011;32371;51.032;5.816;2023-02-28T17:13:42;2.45;;;1.48;;
46643;SDS011;32371;51.032;5.816;2023-02-28T17:16:22;5.25;;;1.58;;
46643;SDS011;32371;51.032;5.816;2023-02-28T17:18:51;2.38;;;1.40;;
46643;SDS011;32371;51.032;5.816;2023-02-28T17:21:22;2.35;;;1.60;;
46643;SDS011;32371;51.032;5.816;2023-02-28T17:23:47;5.05;;;1.70;;
46643;SDS011;32371;51.032;5.816;2023-02-28T17:26:16;2.72;;;1.80;;
46643;SDS011;32371;51.032;5.816;2023-02-28T17:28:45;4.25;;;1.95;;